createdAt,value
2017-05-08T00:06:27.063Z,1010.4
2017-05-08T00:16:42.565Z,1010.4
2017-05-08T00:26:58.193Z,1010.4
2017-05-08T00:37:12.771Z,1010.4
2017-05-08T00:47:26.508Z,1010.4
2017-05-08T00:57:40.503Z,1010.4
2017-05-08T01:07:55.271Z,1010.4
2017-05-08T01:18:09.878Z,1010.4
2017-05-08T01:28:24.081Z,1010.4
2017-05-08T01:38:39.461Z,1010.3
2017-05-08T01:48:53.655Z,1010.3
2017-05-08T01:59:07.845Z,1010.3
2017-05-08T02:09:23.394Z,1010.3
2017-05-08T02:19:37.596Z,1010.4
2017-05-08T02:29:53.034Z,1010.3
2017-05-08T02:40:07.790Z,1010.3
2017-05-08T02:50:23.142Z,1010.3
2017-05-08T03:00:36.886Z,1010.3
2017-05-08T03:10:50.642Z,1010.3
2017-05-08T03:21:05.667Z,1010.3
2017-05-08T03:31:21.291Z,1010.2
2017-05-08T03:41:35.313Z,1010.2
2017-05-08T03:51:49.878Z,1010.3
2017-05-08T04:02:05.532Z,1010.3
2017-05-08T04:12:20.287Z,1010.3
2017-05-08T04:22:34.167Z,1010.3
2017-05-08T04:32:48.183Z,1010.3
2017-05-08T04:43:01.939Z,1010.4
2017-05-08T04:53:16.694Z,1010.5
2017-05-08T05:03:31.816Z,1010.7
2017-05-08T05:13:45.863Z,1010.7
2017-05-08T05:23:59.896Z,1010.9
2017-05-08T05:34:15.287Z,1010.8
2017-05-08T05:44:30.445Z,1010.8
2017-05-08T05:54:45.729Z,1010.8
2017-05-08T06:05:01.082Z,1010.9
2017-05-08T06:15:16.205Z,1010.9
2017-05-08T06:25:31.559Z,1011
2017-05-08T06:35:46.266Z,1011.1
2017-05-08T06:46:01.351Z,1011.1
2017-05-08T06:56:16.290Z,1011.3
2017-05-08T07:06:31.527Z,1011.3
2017-05-08T07:16:47.248Z,1011.3
2017-05-08T07:27:02.641Z,1011.4
2017-05-08T07:37:17.007Z,1011.4
2017-05-08T07:47:32.022Z,1011.5
2017-05-08T07:57:45.810Z,1011.6
2017-05-08T08:08:00.458Z,1011.7
2017-05-08T08:18:15.429Z,1011.8
2017-05-08T08:28:30.135Z,1011.8
2017-05-08T08:38:44.201Z,1011.8
2017-05-08T08:48:59.160Z,1012
2017-05-08T08:59:12.956Z,1012
2017-05-08T09:09:27.445Z,1012.1
2017-05-08T09:19:41.430Z,1012.2
2017-05-08T09:29:56.624Z,1012.3
2017-05-08T09:40:12.215Z,1012.5
2017-05-08T09:50:27.035Z,1012.5
2017-05-08T10:00:42.097Z,1012.7
2017-05-08T10:10:56.587Z,1012.5
2017-05-08T10:21:12.206Z,1012.5
2017-05-08T10:31:27.483Z,1012.6
2017-05-08T10:41:41.348Z,1012.5
2017-05-08T10:51:56.716Z,1013.1
2017-05-08T11:02:11.310Z,1012.9
2017-05-08T11:12:27.121Z,1012.6
2017-05-08T11:22:42.035Z,1012.6
2017-05-08T11:32:56.226Z,1012.8
2017-05-08T11:43:10.186Z,1012.8
2017-05-08T11:53:24.688Z,1012.8
2017-05-08T12:03:39.564Z,1013.1
2017-05-08T12:13:53.502Z,1012.9
2017-05-08T12:24:08.964Z,1013
2017-05-08T12:34:23.466Z,1013.2
2017-05-08T12:44:38.127Z,1013
2017-05-08T12:54:53.651Z,1013.1
2017-05-08T13:05:08.039Z,1013
2017-05-08T13:15:23.130Z,1013
2017-05-08T13:25:37.752Z,1012.9
2017-05-08T13:35:52.027Z,1013.2
2017-05-08T13:46:07.446Z,1013.2
2017-05-08T13:56:21.454Z,1013
2017-05-08T14:06:35.633Z,1013
2017-05-08T14:16:51.345Z,1013.2
2017-05-08T14:27:05.266Z,1013.1
2017-05-08T14:37:19.081Z,1013.3
2017-05-08T14:47:34.321Z,1013.2
2017-05-08T14:57:48.239Z,1012.7
2017-05-08T15:08:03.467Z,1012.8
2017-05-08T15:18:18.968Z,1012.7
2017-05-08T15:28:34.090Z,1012.6
2017-05-08T15:38:48.505Z,1012.7
2017-05-08T15:49:02.933Z,1013
2017-05-08T15:59:18.310Z,1012.8
2017-05-08T16:09:33.212Z,1013
2017-05-08T16:19:47.152Z,1012.9
2017-05-08T16:30:01.608Z,1012.9
2017-05-08T16:40:16.725Z,1013.1
2017-05-08T16:50:30.738Z,1013.2
2017-05-08T17:00:45.279Z,1013
2017-05-08T17:11:00.239Z,1013
2017-05-08T17:21:15.226Z,1013
2017-05-08T17:31:29.805Z,1013
2017-05-08T17:41:43.731Z,1013.1
2017-05-08T17:51:58.370Z,1013.2
2017-05-08T18:02:13.186Z,1013.4
2017-05-08T18:12:28.529Z,1013.5
2017-05-08T18:22:42.630Z,1013.6
2017-05-08T18:32:57.325Z,1013.7
2017-05-08T18:43:12.012Z,1013.8
2017-05-08T18:53:27.168Z,1014
2017-05-08T19:03:42.188Z,1014.1
2017-05-08T19:13:57.282Z,1014.3
2017-05-08T19:24:12.981Z,1014.4
2017-05-08T19:34:27.157Z,1014.6
2017-05-08T19:44:41.692Z,1014.7
2017-05-08T19:54:57.308Z,1014.9
2017-05-08T20:05:11.767Z,1015
2017-05-08T20:15:26.290Z,1015.1
2017-05-08T20:25:40.144Z,1015.1
2017-05-08T20:35:55.462Z,1015.3
2017-05-08T20:46:09.201Z,1015.4
2017-05-08T20:56:23.161Z,1015.4
2017-05-08T21:06:37.803Z,1015.4
2017-05-08T21:16:51.785Z,1015.5
2017-05-08T21:27:05.596Z,1015.6
2017-05-08T21:37:19.870Z,1015.6
2017-05-08T21:47:33.996Z,1015.7
2017-05-08T21:57:47.730Z,1015.8
2017-05-08T22:08:01.702Z,1015.8
2017-05-08T22:18:15.812Z,1015.9
2017-05-08T22:28:30.419Z,1015.9
2017-05-08T22:38:45.961Z,1015.9
2017-05-08T22:48:59.694Z,1015.9
2017-05-08T22:59:14.277Z,1015.9
2017-05-08T23:09:29.879Z,1016
2017-05-08T23:19:45.141Z,1016
2017-05-08T23:30:00.355Z,1015.9
2017-05-08T23:40:14.968Z,1016
2017-05-08T23:50:29.293Z,1016
